Roxbury, Massachusetts
Current Conditions -  °F | °C
As of 5:54 PM on Tuesday 21 Oct 2014 (Local Time) from KBOS Reporting Station
Scattered Clouds Scattered Clouds  
Wind Chill: 55°   Ceiling: Unl
Heat Index: 55°   Visibility: 10mi
Dew Point: 53°   Wind: 7mph
Humidity: 93%   Direction: 20°NNE
Pressure: 29.93"   Gusts: NA
Location:  42.3237°N, 71.0855°W
Report Text: KBOS 212154Z 02006KT 10SM FEW007 SCT035 SCT075 13/12 A2993 RMK AO2 SLP134 T01280117
Loading
Personal Weather Stations






























Interactive Weather Map New forecast layout! Learn more

10-Day Weather Forecast

Advertisements
Track Severe Weather on mobile